Time,TemperatureF,DewpointF,PressureIn,WindDirection,WindDirectionDegrees,WindSpeedMPH,WindSpeedGustMPH,Humidity,HourlyPrecipIn,Conditions,Clouds,dailyrainin,SolarRadiationWatts/m^2,SoftwareType,DateUTC
2013-11-28 00:01:00,23.0,16.0,-100.00,NNW,336,1.0,2.0,74,0.00,,,0.00,0.000000,,2013-11-28 07:01:00,
2013-11-28 00:11:00,23.0,16.0,-100.00,NNW,336,1.0,2.0,74,0.00,,,0.00,0.000000,,2013-11-28 07:11:00,
2013-11-28 00:52:00,25.0,19.0,-100.00,SE,127,4.0,6.0,76,0.00,,,0.00,0.000000,,2013-11-28 07:52:00,
2013-11-28 01:02:00,25.0,19.0,-100.00,SE,127,4.0,6.0,76,0.00,,,0.00,0.000000,,2013-11-28 08:02:00,
2013-11-28 01:11:00,25.0,19.0,-100.00,SE,127,4.0,6.0,76,0.00,,,0.00,0.000000,,2013-11-28 08:11:00,
2013-11-28 01:42:00,21.0,15.0,-100.00,NE,41,1.0,5.0,78,0.00,,,-99.99,0.000000,,2013-11-28 08:42:00,
2013-11-28 01:53:00,21.0,15.0,-100.00,NE,41,1.0,5.0,78,0.00,,,-99.99,0.000000,,2013-11-28 08:53:00,
2013-11-28 02:02:00,21.0,15.0,-100.00,NE,41,1.0,5.0,78,0.00,,,-99.99,0.000000,,2013-11-28 09:02:00,
2013-11-28 02:11:00,21.0,15.0,-100.00,NE,41,1.0,5.0,78,0.00,,,-99.99,0.000000,,2013-11-28 09:11:00,
2013-11-28 02:43:00,20.0,14.0,-100.00,NNW,327,1.0,3.0,77,0.00,,,0.00,0.000000,,2013-11-28 09:43:00,
2013-11-28 02:53:00,20.0,14.0,-100.00,NNW,327,1.0,3.0,77,0.00,,,0.00,0.000000,,2013-11-28 09:53:00,
2013-11-28 03:02:00,20.0,14.0,-100.00,NNW,327,1.0,3.0,77,0.00,,,0.00,0.000000,,2013-11-28 10:02:00,
2013-11-28 03:12:00,20.0,14.0,-100.00,NNW,327,1.0,3.0,77,0.00,,,0.00,0.000000,,2013-11-28 10:12:00,
2013-11-28 03:43:00,19.0,14.0,-100.00,North,1,0.0,3.0,80,0.00,,,0.00,0.000000,,2013-11-28 10:43:00,
2013-11-28 03:52:00,19.0,14.0,-100.00,North,1,0.0,3.0,80,0.00,,,0.00,0.000000,,2013-11-28 10:52:00,
2013-11-28 04:02:00,19.0,14.0,-100.00,North,1,0.0,3.0,80,0.00,,,0.00,0.000000,,2013-11-28 11:02:00,
2013-11-28 04:11:00,19.0,14.0,-100.00,North,1,0.0,3.0,80,0.00,,,0.00,0.000000,,2013-11-28 11:11:00,
2013-11-28 04:42:00,18.0,12.0,-100.00,North,351,0.0,1.0,78,0.00,,,0.00,0.000000,,2013-11-28 11:42:00,
2013-11-28 04:52:00,18.0,12.0,-100.00,North,351,0.0,1.0,78,0.00,,,0.00,0.000000,,2013-11-28 11:52:00,
2013-11-28 05:02:00,18.0,12.0,-100.00,North,351,0.0,1.0,78,0.00,,,0.00,0.000000,,2013-11-28 12:02:00,
2013-11-28 05:12:00,18.0,12.0,-100.00,North,351,0.0,1.0,78,0.00,,,0.00,0.000000,,2013-11-28 12:12:00,
2013-11-28 05:42:00,19.0,15.0,-100.00,NE,34,1.0,2.0,85,0.00,,,0.00,0.000000,,2013-11-28 12:42:00,
2013-11-28 05:52:00,19.0,15.0,-100.00,NE,34,1.0,2.0,85,0.00,,,0.00,0.000000,,2013-11-28 12:52:00,
2013-11-28 06:01:00,19.0,15.0,-100.00,NE,34,1.0,2.0,85,0.00,,,0.00,0.000000,,2013-11-28 13:01:00,
2013-11-28 06:11:00,19.0,15.0,-100.00,NE,34,1.0,2.0,85,0.00,,,0.00,0.000000,,2013-11-28 13:11:00,
2013-11-28 06:42:00,18.0,14.0,-100.00,SE,131,2.0,5.0,83,0.00,,,0.00,0.000000,,2013-11-28 13:42:00,
2013-11-28 06:52:00,18.0,14.0,-100.00,SE,131,2.0,5.0,83,0.00,,,0.00,0.000000,,2013-11-28 13:52:00,
2013-11-28 07:02:00,18.0,14.0,-100.00,SE,131,2.0,5.0,83,0.00,,,0.00,0.000000,,2013-11-28 14:02:00,
2013-11-28 07:11:00,18.0,14.0,-100.00,SE,131,2.0,5.0,83,0.00,,,0.00,0.000000,,2013-11-28 14:11:00,
2013-11-28 07:42:00,18.0,13.0,-100.00,North,8,0.0,6.0,82,0.00,,,0.00,0.000000,,2013-11-28 14:42:00,
2013-11-28 07:52:00,18.0,13.0,-100.00,North,8,0.0,6.0,82,0.00,,,0.00,0.000000,,2013-11-28 14:52:00,
2013-11-28 08:02:00,18.0,13.0,-100.00,North,8,0.0,6.0,82,0.00,,,0.00,0.000000,,2013-11-28 15:02:00,
2013-11-28 08:12:00,18.0,13.0,-100.00,North,8,0.0,6.0,82,0.00,,,0.00,0.000000,,2013-11-28 15:12:00,
2013-11-28 08:44:00,18.0,14.0,-100.00,North,5,0.0,4.0,84,0.00,,,0.00,5.000000,,2013-11-28 15:44:00,
2013-11-28 08:54:00,18.0,14.0,-100.00,North,5,0.0,4.0,84,0.00,,,0.00,5.000000,,2013-11-28 15:54:00,
2013-11-28 09:03:00,18.0,14.0,-100.00,North,5,0.0,4.0,84,0.00,,,0.00,5.000000,,2013-11-28 16:03:00,
2013-11-28 09:13:00,18.0,14.0,-100.00,North,5,0.0,4.0,84,0.00,,,0.00,5.000000,,2013-11-28 16:13:00,
2013-11-28 09:43:00,19.0,14.0,-100.00,NE,40,0.0,3.0,81,0.00,,,0.00,54.000000,,2013-11-28 16:43:00,
2013-11-28 09:53:00,19.0,14.0,-100.00,NE,40,0.0,3.0,81,0.00,,,0.00,54.000000,,2013-11-28 16:53:00,
2013-11-28 10:02:00,19.0,14.0,-100.00,NE,40,0.0,3.0,81,0.00,,,0.00,54.000000,,2013-11-28 17:02:00,
2013-11-28 10:12:00,19.0,14.0,-100.00,NE,40,0.0,3.0,81,0.00,,,0.00,54.000000,,2013-11-28 17:12:00,
2013-11-28 10:42:00,24.0,18.0,-100.00,SE,132,2.0,4.0,79,0.00,,,0.00,135.000000,,2013-11-28 17:42:00,
2013-11-28 10:52:00,24.0,18.0,-100.00,SE,132,2.0,4.0,79,0.00,,,0.00,135.000000,,2013-11-28 17:52:00,
2013-11-28 11:02:00,24.0,18.0,-100.00,SE,132,2.0,4.0,79,0.00,,,0.00,135.000000,,2013-11-28 18:02:00,
2013-11-28 11:11:00,24.0,18.0,-100.00,SE,132,2.0,4.0,79,0.00,,,0.00,135.000000,,2013-11-28 18:11:00,
2013-11-28 11:42:00,31.0,24.0,-100.00,SW,222,1.0,3.0,74,0.00,,,0.00,258.000000,,2013-11-28 18:42:00,
2013-11-28 11:52:00,31.0,24.0,-100.00,SW,222,1.0,3.0,74,0.00,,,0.00,258.000000,,2013-11-28 18:52:00,
2013-11-28 12:02:00,31.0,24.0,-100.00,SW,222,1.0,3.0,74,0.00,,,0.00,258.000000,,2013-11-28 19:02:00,
2013-11-28 12:11:00,31.0,24.0,-100.00,SW,222,1.0,3.0,74,0.00,,,0.00,258.000000,,2013-11-28 19:11:00,
2013-11-28 12:42:00,35.0,23.0,-100.00,West,261,2.0,4.0,61,0.00,,,0.00,346.000000,,2013-11-28 19:42:00,
2013-11-28 12:52:00,35.0,23.0,-100.00,West,261,2.0,4.0,61,0.00,,,0.00,346.000000,,2013-11-28 19:52:00,
2013-11-28 13:01:00,35.0,23.0,-100.00,West,261,2.0,4.0,61,0.00,,,0.00,346.000000,,2013-11-28 20:01:00,
2013-11-28 13:11:00,35.0,23.0,-100.00,West,261,2.0,4.0,61,0.00,,,0.00,346.000000,,2013-11-28 20:11:00,
2013-11-28 13:52:00,42.0,25.0,-100.00,West,272,3.0,5.0,51,0.00,,,0.00,431.000000,,2013-11-28 20:52:00,
2013-11-28 14:02:00,42.0,25.0,-100.00,West,272,3.0,5.0,51,0.00,,,0.00,431.000000,,2013-11-28 21:02:00,
2013-11-28 14:11:00,42.0,25.0,-100.00,West,272,3.0,5.0,51,0.00,,,0.00,431.000000,,2013-11-28 21:11:00,
2013-11-28 15:42:00,47.0,24.0,-100.00,NNW,336,2.0,5.0,40,-99.99,,,0.00,242.000000,,2013-11-28 22:42:00,
2013-11-28 15:53:00,47.0,24.0,-100.00,NNW,336,2.0,5.0,40,-99.99,,,0.00,242.000000,,2013-11-28 22:53:00,
2013-11-28 16:02:00,47.0,24.0,-100.00,NNW,336,2.0,5.0,40,-99.99,,,0.00,242.000000,,2013-11-28 23:02:00,
2013-11-28 16:42:00,44.0,22.0,-100.00,SE,133,2.0,3.0,42,-99.99,,,0.00,62.000000,,2013-11-28 23:42:00,
2013-11-28 16:52:00,44.0,22.0,-100.00,SE,133,2.0,3.0,42,-99.99,,,0.00,62.000000,,2013-11-28 23:52:00,
2013-11-28 17:02:00,44.0,22.0,-100.00,SE,133,2.0,3.0,42,-99.99,,,0.00,62.000000,,2013-11-29 00:02:00,
2013-11-28 17:11:00,44.0,22.0,-100.00,SE,133,2.0,3.0,42,-99.99,,,0.00,62.000000,,2013-11-29 00:11:00,
2013-11-28 17:42:00,35.0,22.0,-100.00,SE,142,3.0,6.0,58,-99.99,,,0.00,10.000000,,2013-11-29 00:42:00,
2013-11-28 17:52:00,35.0,22.0,-100.00,SE,142,3.0,6.0,58,-99.99,,,0.00,10.000000,,2013-11-29 00:52:00,
2013-11-28 18:01:00,35.0,22.0,-100.00,SE,142,3.0,6.0,58,-99.99,,,0.00,10.000000,,2013-11-29 01:01:00,
2013-11-28 18:11:00,35.0,22.0,-100.00,SE,142,3.0,6.0,58,-99.99,,,0.00,10.000000,,2013-11-29 01:11:00,
2013-11-28 18:42:00,32.0,18.0,-100.00,SE,128,1.0,5.0,55,0.00,,,0.00,0.000000,,2013-11-29 01:42:00,
2013-11-28 18:52:00,32.0,18.0,-100.00,SE,128,1.0,5.0,55,0.00,,,0.00,0.000000,,2013-11-29 01:52:00,
2013-11-28 19:02:00,32.0,18.0,-100.00,SE,128,1.0,5.0,55,0.00,,,0.00,0.000000,,2013-11-29 02:02:00,
2013-11-28 19:12:00,32.0,18.0,-100.00,SE,128,1.0,5.0,55,0.00,,,0.00,0.000000,,2013-11-29 02:12:00,
2013-11-28 19:42:00,30.0,16.0,-100.00,North,356,2.0,6.0,56,0.00,,,0.00,0.000000,,2013-11-29 02:42:00,
2013-11-28 19:52:00,30.0,16.0,-100.00,North,356,2.0,6.0,56,0.00,,,0.00,0.000000,,2013-11-29 02:52:00,
2013-11-28 20:01:00,30.0,16.0,-100.00,North,356,2.0,6.0,56,0.00,,,0.00,0.000000,,2013-11-29 03:01:00,
2013-11-28 20:11:00,30.0,16.0,-100.00,North,356,2.0,6.0,56,0.00,,,0.00,0.000000,,2013-11-29 03:11:00,
2013-11-28 20:43:00,31.0,20.0,-100.00,ESE,103,6.0,7.0,63,0.00,,,0.00,0.000000,,2013-11-29 03:43:00,
2013-11-28 20:53:00,31.0,20.0,-100.00,ESE,103,6.0,7.0,63,0.00,,,0.00,0.000000,,2013-11-29 03:53:00,
2013-11-28 21:03:00,31.0,20.0,-100.00,ESE,103,6.0,7.0,63,0.00,,,0.00,0.000000,,2013-11-29 04:03:00,
2013-11-28 21:13:00,31.0,20.0,-100.00,ESE,103,6.0,7.0,63,0.00,,,0.00,0.000000,,2013-11-29 04:13:00,
2013-11-28 21:43:00,26.0,17.0,-100.00,NNE,13,0.0,6.0,68,0.00,,,0.00,0.000000,,2013-11-29 04:43:00,
2013-11-28 21:52:00,26.0,17.0,-100.00,NNE,13,0.0,6.0,68,0.00,,,0.00,0.000000,,2013-11-29 04:52:00,
2013-11-28 22:02:00,26.0,17.0,-100.00,NNE,13,0.0,6.0,68,0.00,,,0.00,0.000000,,2013-11-29 05:02:00,
2013-11-28 22:12:00,26.0,17.0,-100.00,NNE,13,0.0,6.0,68,0.00,,,0.00,0.000000,,2013-11-29 05:12:00,
2013-11-28 22:43:00,24.0,14.0,-100.00,SSE,149,2.0,5.0,66,0.00,,,0.00,0.000000,,2013-11-29 05:43:00,
2013-11-28 22:53:00,24.0,14.0,-100.00,SSE,149,2.0,5.0,66,0.00,,,0.00,0.000000,,2013-11-29 05:53:00,
2013-11-28 23:02:00,24.0,14.0,-100.00,SSE,149,2.0,5.0,66,0.00,,,0.00,0.000000,,2013-11-29 06:02:00,
2013-11-28 23:12:00,24.0,14.0,-100.00,SSE,149,2.0,5.0,66,0.00,,,0.00,0.000000,,2013-11-29 06:12:00,
2013-11-28 23:42:00,23.0,15.0,-100.00,North,5,1.0,5.0,72,0.00,,,0.00,0.000000,,2013-11-29 06:42:00,
2013-11-28 23:52:00,23.0,15.0,-100.00,North,5,1.0,5.0,72,0.00,,,0.00,0.000000,,2013-11-29 06:52:00,